Sábado, 28 de Marzo del 2015

portal contactenos mapa del sitio buscar Revisar Correo Corporativo

Reporte METAR Consolidado

|| Reporte TAF Consolidado ||

Informe METAR emitido cada hora.

METAR

ESTACIÓN

AEROPUERTO

HORA UTC

DESCRIPCIÓN

SLGM

Guayaramerín

10-49S|65-20W

23:00

SLGM 272300Z 34009KT 5000 TS VCSH BKN015 FEW020CB OVC200 28/24 Q1009 A2980 HR82 CB/SH NE/E/W/NW TS NE/E=

SLRI

Riberalta

11-00S|66-04W

09:00

SLRI 280900Z 21004KT 9999 SCT003 BKN015 OVC070 22/22 Q1014 A2997 HR98=

SLCO

Cobija

11-02S|68-47W

22:00

SLCO 272200Z 24004KT 9999 FEW023 FEW025CB 32/25 Q1009 A2982 982.3 HR67 CB N/NE AC/CI=

SLJO

San Joaquin

13-03S|64-39W

22:00

SLJO 272200Z 18010KT 7000 VCSH BKN007 OVC070 21/21 Q1011 A2986 HR98 SH NE/E RWY OPR C210=

SLRA

San Ramón

13-15S|64-36W

22:00

SLRA 272200Z 14010KT 8000 VCSH BKN008 OVC070 21/20 Q1012 A2989 HR96 SH NE/E/NW RWY WET OPR C206=

SLMG

San Magdalena

13-15S|64-03W

23:00

SLMG 272300Z 14004KT 8000 -RA BKN008 OVC070 22/21 Q1012 A2990 HR96 RWY OPR C207=

SLBU

Baures

13-39S|63-42W

22:00

SLBU 272200Z 18012KT 9999 FEW010 BKN080 21/21 Q1012 A2991 HR97 RWY OPR C206=

SLSA

Santa Ana de Yacuma

13-45S|65-26W

23:00

SLSA 272300Z 15008KT 9999 SCT006 OVC070 20/19 Q1011 A2987 HR91=

SLSR

Santa Rosa

14-04S|66-47W

22:00

SLSR 272200Z 12010KT 8000 -RA BKN004 OVC070 21/20 Q1010 A2983 HR96 RWY INOP=

SLRY

Reyes

14-18S|67-21W

22:00

SLRY 272200Z 16005KT 9999 BKN012 OVC070 21/20 Q1014 A2997 HR94 RWY WET INOP=

SLRQ

Rurrenabaque

14-25S|67-29W

22:00

SLRQ 272200Z 00000KT 9999 SCT005 BKN008 OVC070 21/21 Q1013 A2994 HR100 REDZ=

SLAP

Apolo

14-44S|68-24W

-

Mensaje no Recibido

SLTR

Trinidad

14-49S|64-54W

09:00

SLTR 280900Z 00000KT 9999 FEW020 SCT080 BKN200 20/19 Q1016 A3003 998.3 HR94 NOSIG=

SLSB

San Borja

14-51S|66-44W

23:00

SLSB 272300Z 12006KT 9999 BKN015 OVC070 21/19 Q1014 A2995 HR89 RWY WET OPR C210=

SLSM

San Ignacio de Moxos

14-57S|65-38W

22:00

SLSM 272200Z 15006KT 9999 BKN015 OVC070 20/19 Q1013 A2992 HR91 RWY OPR C206=

SLAS

Ascención de Guarayos

15-55S|63-09W

23:00

SLAS 272300Z 16008KT 9999 BKN013 OVC070 19/18 Q1015 A2998 HR93 RWY WET OPR=

SLCP

Concepción

16-08S|62-01W

22:00

SLCP 272200Z 18008KT 9999 OVC007 18/18 Q1017 A3003 HR98 RWY WET OPR=

SLLP

Internaciónal El Alto

16-08S|68-10W

09:00

SLLP 280900Z VRB02KT 9999 FEW010 BKN200 02/00 Q1039 A3068 628.7 AC HR91 NOSIG=

SLJV

San Javier

16-16S|62-28W

22:00

SLJV 272200Z 18008KT 5000 -RA OVC008 17/17 Q1014 A2994 HR100 RWY WET OPR=

SLTI

San Matías

16-20S|58-24W

22:00

SLTI 272200Z 00000KT 9999 SCT015 OVC200 26/23 Q1020 A3012 HR85 RWY NML=

SLSI

San Ignacio de Velasco

16-23S|60-57W

23:00

SLSI 272300Z 19006KT 9999 OVC010 19/18 Q1016 A3000 HR96 RWY NML =

SLCB

Cochabamba

17-25S|66-10W

09:00

SLCB 280900Z 00000KT 7000 FEW025 11/11 Q1028 A3036 753.7 HR98 FU CI NOSIG=

SLCN

Charaña

17-35S|69-25W

-

Mensaje no Recibido

SLVR

Internaciónal Viru Viru

17-38S|63-08W

09:00

SLVR 280900Z 18010KT 9999 FEW007 SCT070 18/18 Q1018 A3008 HR96 NOSIG=

SLET

El Trompillo

17-48S|63-10W

23:00

SLET 272300Z 16007KT 9999 FEW025 OVC070 18/17 Q1016 A3001 HR91 NOSIG=

SLJE

San José de Chiquitos

17-49S|60-44W

22:00

SLJE 272200Z 18005KT 9999 OVC013 20/18 Q1018 A3006 HR90 RWY HUM OPR=

SLOR

Oruro

17-57S|67-04W

20:00

SLOR 272000Z 01012G22KT 9999 FEW017 FEW020CB SCT070 OVC200 13/07 Q1033 A3052 655.0 CB/SH/N/NE/E HR67=

SLRB

Roboré

18-19S|59-45W

23:00

SLRB 272300Z 00000KT 9999 OVC006 19/18 Q1020 A3012 HR96 RWY HUM OPR=

SLVG

Valle Grande

18-28S|64-05W

21:00

SLVG 272100Z 17010KT 9999 SCT018 BKN070 15/13 Q1025 A3027 HR90 RWY HUM OPR=

SLPS

Puerto Suárez

18-58S|57-49W

23:00

SLPS 272300Z 25008KT 8000 -DZ OVC006 21/20 Q1015 A2998 HR96=

SLSU

Sucre

19-00S|65-17W

23:00

SLSU 272300Z 05010KT 9999 SCT013 OVC200 12/10 Q1030 A3042 HR88=

SLPO

Potosí

19-32S|65-43W

21:00

SLPO 272100Z 06010KT 9999 SCT020 BKN200 14/04 Q1034 A3053 HR73=

SLAG

Monteagudo

19-49S|63-58W

21:00

SLAG 272100Z 09005KT 5000 -DZ BKN010 OVC070 18/16 Q1023 A3021 HR86 RWY CLSD=

SLCA

Camiri

20-00S|63-31W

09:00

SLCA 280900Z 00000KT 9999 OVC027 16/15 Q1023 A3021 HR91 RWY HUM OPR=

SLUY

Uyuni

20-27S|62-52W

-

SLUY 280000Z 00000KT 9999 FEW015 11/02 Q1033 A3052 658.0 CI HR44=

SLVM

Villamontes

21-15S|63-24W

21:00

SLVM 272100Z 18004KT 9999 BKN023 OVC070 21/17 Q1019 A3009 HR83=

SLTJ

Tarija

21-33S|64-42W

09:00

SLTJ 280900Z 00000KT 9999 FEW010 BKN023 OVC070 13/10 Q1024 A3025 HR84 ST BAJOS S/SW/W/NW=

SLYA

Yacuiba

21-57S|63-39W

23:00

SLYA 272300Z 18006KT 6000 -DZ BKN015 OVC070 17/16 Q1021 A3017 HR95=

SLBJ

Bermejo

22-46S|64-18W

21:00

SLBJ 272100Z 36004KT 9999 SCT013 OVC070 20/17 Q1018 A3006 HR83=